sensor_id;sensor_type;location;lat;lon;timestamp;P1;durP1;ratioP1;P2;durP2;ratioP2
1563;SDS011;775;51.958;7.976;2022-10-16T00:01:04;10.30;;;4.30;;
1563;SDS011;775;51.958;7.976;2022-10-16T00:03:32;6.60;;;2.80;;
1563;SDS011;775;51.958;7.976;2022-10-16T00:05:59;7.17;;;3.30;;
1563;SDS011;775;51.958;7.976;2022-10-16T00:08:26;6.33;;;2.83;;
1563;SDS011;775;51.958;7.976;2022-10-16T00:10:59;6.60;;;3.20;;
1563;SDS011;775;51.958;7.976;2022-10-16T00:13:26;7.90;;;3.30;;
1563;SDS011;775;51.958;7.976;2022-10-16T00:15:54;7.13;;;3.07;;
1563;SDS011;775;51.958;7.976;2022-10-16T00:18:21;7.60;;;3.30;;
1563;SDS011;775;51.958;7.976;2022-10-16T00:20:48;7.87;;;3.20;;
1563;SDS011;775;51.958;7.976;2022-10-16T00:23:15;6.30;;;3.03;;
1563;SDS011;775;51.958;7.976;2022-10-16T00:25:43;8.13;;;3.27;;
1563;SDS011;775;51.958;7.976;2022-10-16T00:28:11;6.43;;;2.60;;
1563;SDS011;775;51.958;7.976;2022-10-16T00:30:38;6.60;;;3.00;;
1563;SDS011;775;51.958;7.976;2022-10-16T00:33:05;7.23;;;3.30;;
1563;SDS011;775;51.958;7.976;2022-10-16T00:35:32;6.30;;;2.93;;
1563;SDS011;775;51.958;7.976;2022-10-16T00:38:00;7.33;;;2.77;;
1563;SDS011;775;51.958;7.976;2022-10-16T00:40:27;6.27;;;3.10;;
1563;SDS011;775;51.958;7.976;2022-10-16T00:42:54;9.80;;;4.13;;
1563;SDS011;775;51.958;7.976;2022-10-16T00:45:22;7.87;;;3.47;;
1563;SDS011;775;51.958;7.976;2022-10-16T00:47:50;7.83;;;3.10;;
1563;SDS011;775;51.958;7.976;2022-10-16T00:50:21;8.20;;;3.10;;
1563;SDS011;775;51.958;7.976;2022-10-16T00:52:50;8.17;;;3.70;;
1563;SDS011;775;51.958;7.976;2022-10-16T00:55:18;7.37;;;4.17;;
1563;SDS011;775;51.958;7.976;2022-10-16T00:57:45;5.90;;;3.10;;
1563;SDS011;775;51.958;7.976;2022-10-16T01:00:15;6.67;;;3.27;;
1563;SDS011;775;51.958;7.976;2022-10-16T01:02:44;7.37;;;3.40;;
1563;SDS011;775;51.958;7.976;2022-10-16T01:05:11;8.50;;;3.80;;
1563;SDS011;775;51.958;7.976;2022-10-16T01:07:40;7.60;;;3.33;;
1563;SDS011;775;51.958;7.976;2022-10-16T01:10:14;13.30;;;3.20;;
1563;SDS011;775;51.958;7.976;2022-10-16T01:12:45;10.83;;;3.30;;
1563;SDS011;775;51.958;7.976;2022-10-16T01:15:14;6.80;;;3.40;;
1563;SDS011;775;51.958;7.976;2022-10-16T01:17:47;7.23;;;3.33;;
1563;SDS011;775;51.958;7.976;2022-10-16T01:20:18;10.27;;;3.80;;
1563;SDS011;775;51.958;7.976;2022-10-16T01:22:50;7.63;;;3.40;;
1563;SDS011;775;51.958;7.976;2022-10-16T01:25:24;7.70;;;3.03;;
1563;SDS011;775;51.958;7.976;2022-10-16T01:27:53;10.90;;;3.17;;
1563;SDS011;775;51.958;7.976;2022-10-16T01:30:22;6.83;;;3.30;;
1563;SDS011;775;51.958;7.976;2022-10-16T01:32:50;8.93;;;3.53;;
1563;SDS011;775;51.958;7.976;2022-10-16T01:35:21;8.17;;;3.67;;
1563;SDS011;775;51.958;7.976;2022-10-16T01:37:50;6.30;;;3.77;;
1563;SDS011;775;51.958;7.976;2022-10-16T01:40:19;6.00;;;2.83;;
1563;SDS011;775;51.958;7.976;2022-10-16T01:42:48;7.37;;;3.57;;
1563;SDS011;775;51.958;7.976;2022-10-16T01:45:17;7.10;;;3.27;;
1563;SDS011;775;51.958;7.976;2022-10-16T01:47:46;9.83;;;3.47;;
1563;SDS011;775;51.958;7.976;2022-10-16T01:50:14;6.83;;;3.40;;
1563;SDS011;775;51.958;7.976;2022-10-16T01:52:43;6.00;;;3.00;;
1563;SDS011;775;51.958;7.976;2022-10-16T01:55:12;7.80;;;2.80;;
1563;SDS011;775;51.958;7.976;2022-10-16T01:57:42;6.13;;;2.73;;
1563;SDS011;775;51.958;7.976;2022-10-16T02:00:11;7.17;;;3.73;;
1563;SDS011;775;51.958;7.976;2022-10-16T02:02:41;7.17;;;3.30;;
1563;SDS011;775;51.958;7.976;2022-10-16T02:05:10;6.67;;;3.20;;
1563;SDS011;775;51.958;7.976;2022-10-16T02:07:39;7.70;;;3.20;;
1563;SDS011;775;51.958;7.976;2022-10-16T02:10:07;6.20;;;3.10;;
1563;SDS011;775;51.958;7.976;2022-10-16T02:12:35;6.97;;;3.17;;
1563;SDS011;775;51.958;7.976;2022-10-16T02:15:04;7.23;;;2.90;;
1563;SDS011;775;51.958;7.976;2022-10-16T02:17:31;10.80;;;4.00;;
1563;SDS011;775;51.958;7.976;2022-10-16T02:20:00;5.87;;;2.53;;
1563;SDS011;775;51.958;7.976;2022-10-16T02:22:28;7.97;;;3.10;;
1563;SDS011;775;51.958;7.976;2022-10-16T02:24:57;6.23;;;3.10;;
1563;SDS011;775;51.958;7.976;2022-10-16T02:27:26;7.13;;;2.90;;
1563;SDS011;775;51.958;7.976;2022-10-16T02:29:55;8.37;;;3.07;;
1563;SDS011;775;51.958;7.976;2022-10-16T02:32:24;9.40;;;3.13;;
1563;SDS011;775;51.958;7.976;2022-10-16T02:34:52;5.90;;;2.90;;
1563;SDS011;775;51.958;7.976;2022-10-16T02:37:21;7.00;;;3.23;;
1563;SDS011;775;51.958;7.976;2022-10-16T02:39:48;6.93;;;3.20;;
1563;SDS011;775;51.958;7.976;2022-10-16T02:42:15;6.90;;;2.90;;
1563;SDS011;775;51.958;7.976;2022-10-16T02:44:44;6.03;;;2.70;;
1563;SDS011;775;51.958;7.976;2022-10-16T02:47:11;7.87;;;2.57;;
1563;SDS011;775;51.958;7.976;2022-10-16T02:49:38;7.13;;;2.93;;
1563;SDS011;775;51.958;7.976;2022-10-16T02:52:05;7.17;;;2.80;;
1563;SDS011;775;51.958;7.976;2022-10-16T02:54:34;7.00;;;2.60;;
1563;SDS011;775;51.958;7.976;2022-10-16T02:57:01;5.50;;;2.60;;
1563;SDS011;775;51.958;7.976;2022-10-16T02:59:28;8.57;;;2.80;;
1563;SDS011;775;51.958;7.976;2022-10-16T03:01:55;5.67;;;2.70;;
1563;SDS011;775;51.958;7.976;2022-10-16T03:04:22;5.77;;;2.67;;
1563;SDS011;775;51.958;7.976;2022-10-16T03:06:49;6.23;;;2.60;;
1563;SDS011;775;51.958;7.976;2022-10-16T03:09:16;5.30;;;2.27;;
1563;SDS011;775;51.958;7.976;2022-10-16T03:11:44;6.60;;;2.30;;
1563;SDS011;775;51.958;7.976;2022-10-16T03:14:12;6.40;;;2.60;;
1563;SDS011;775;51.958;7.976;2022-10-16T03:16:39;9.03;;;4.23;;
1563;SDS011;775;51.958;7.976;2022-10-16T03:19:07;5.40;;;2.50;;
1563;SDS011;775;51.958;7.976;2022-10-16T03:21:34;8.27;;;3.10;;
1563;SDS011;775;51.958;7.976;2022-10-16T03:24:01;5.73;;;2.40;;
1563;SDS011;775;51.958;7.976;2022-10-16T03:26:28;7.70;;;3.07;;
1563;SDS011;775;51.958;7.976;2022-10-16T03:28:56;9.27;;;3.03;;
1563;SDS011;775;51.958;7.976;2022-10-16T03:31:23;5.90;;;2.50;;
1563;SDS011;775;51.958;7.976;2022-10-16T03:33:50;5.80;;;2.40;;
1563;SDS011;775;51.958;7.976;2022-10-16T03:36:17;5.10;;;2.10;;
1563;SDS011;775;51.958;7.976;2022-10-16T03:38:45;7.40;;;2.20;;
1563;SDS011;775;51.958;7.976;2022-10-16T03:41:12;5.77;;;2.37;;
1563;SDS011;775;51.958;7.976;2022-10-16T03:43:39;6.70;;;2.30;;
1563;SDS011;775;51.958;7.976;2022-10-16T03:46:07;5.63;;;2.03;;
1563;SDS011;775;51.958;7.976;2022-10-16T03:48:34;6.47;;;2.50;;
1563;SDS011;775;51.958;7.976;2022-10-16T03:51:01;6.60;;;2.40;;
1563;SDS011;775;51.958;7.976;2022-10-16T03:53:28;6.07;;;2.07;;
1563;SDS011;775;51.958;7.976;2022-10-16T03:55:56;5.40;;;1.90;;
1563;SDS011;775;51.958;7.976;2022-10-16T03:58:23;6.07;;;2.20;;
1563;SDS011;775;51.958;7.976;2022-10-16T04:00:50;7.20;;;2.07;;
1563;SDS011;775;51.958;7.976;2022-10-16T04:03:18;5.40;;;2.40;;
1563;SDS011;775;51.958;7.976;2022-10-16T04:05:46;5.60;;;2.13;;
1563;SDS011;775;51.958;7.976;2022-10-16T04:08:13;4.97;;;1.87;;
1563;SDS011;775;51.958;7.976;2022-10-16T04:10:41;5.20;;;1.87;;
1563;SDS011;775;51.958;7.976;2022-10-16T04:13:09;6.07;;;2.00;;
1563;SDS011;775;51.958;7.976;2022-10-16T04:15:36;6.00;;;2.57;;
1563;SDS011;775;51.958;7.976;2022-10-16T04:18:03;7.17;;;2.20;;
1563;SDS011;775;51.958;7.976;2022-10-16T04:20:32;5.90;;;1.73;;
1563;SDS011;775;51.958;7.976;2022-10-16T04:22:59;6.47;;;1.90;;
1563;SDS011;775;51.958;7.976;2022-10-16T04:25:26;5.97;;;1.93;;
1563;SDS011;775;51.958;7.976;2022-10-16T04:27:53;5.37;;;1.90;;
1563;SDS011;775;51.958;7.976;2022-10-16T04:30:20;5.53;;;1.90;;
1563;SDS011;775;51.958;7.976;2022-10-16T04:32:48;6.10;;;2.20;;
1563;SDS011;775;51.958;7.976;2022-10-16T04:35:15;6.80;;;1.80;;
1563;SDS011;775;51.958;7.976;2022-10-16T04:37:44;4.90;;;1.90;;
1563;SDS011;775;51.958;7.976;2022-10-16T04:40:11;6.50;;;2.07;;
1563;SDS011;775;51.958;7.976;2022-10-16T04:42:38;6.90;;;1.87;;
1563;SDS011;775;51.958;7.976;2022-10-16T04:45:06;5.10;;;1.97;;
1563;SDS011;775;51.958;7.976;2022-10-16T04:47:33;4.87;;;1.50;;
1563;SDS011;775;51.958;7.976;2022-10-16T04:50:00;5.80;;;2.10;;
1563;SDS011;775;51.958;7.976;2022-10-16T04:52:27;5.73;;;1.60;;
1563;SDS011;775;51.958;7.976;2022-10-16T04:54:57;4.77;;;1.67;;
1563;SDS011;775;51.958;7.976;2022-10-16T04:57:27;4.87;;;1.67;;
1563;SDS011;775;51.958;7.976;2022-10-16T04:59:54;7.00;;;1.70;;
1563;SDS011;775;51.958;7.976;2022-10-16T05:02:21;6.87;;;2.40;;
1563;SDS011;775;51.958;7.976;2022-10-16T05:04:48;5.47;;;2.20;;
1563;SDS011;775;51.958;7.976;2022-10-16T05:07:15;4.67;;;1.60;;
1563;SDS011;775;51.958;7.976;2022-10-16T05:09:42;5.53;;;2.17;;
1563;SDS011;775;51.958;7.976;2022-10-16T05:12:11;4.77;;;1.77;;
1563;SDS011;775;51.958;7.976;2022-10-16T05:14:38;6.87;;;1.70;;
1563;SDS011;775;51.958;7.976;2022-10-16T05:17:05;7.37;;;2.23;;
1563;SDS011;775;51.958;7.976;2022-10-16T05:19:32;5.40;;;1.80;;
1563;SDS011;775;51.958;7.976;2022-10-16T05:21:59;5.07;;;2.13;;
1563;SDS011;775;51.958;7.976;2022-10-16T05:24:26;4.90;;;1.60;;
1563;SDS011;775;51.958;7.976;2022-10-16T05:26:53;4.83;;;1.47;;
1563;SDS011;775;51.958;7.976;2022-10-16T05:29:22;5.00;;;1.60;;
1563;SDS011;775;51.958;7.976;2022-10-16T05:31:49;5.70;;;2.10;;
1563;SDS011;775;51.958;7.976;2022-10-16T05:34:17;4.87;;;1.80;;
1563;SDS011;775;51.958;7.976;2022-10-16T05:36:44;5.00;;;1.60;;
1563;SDS011;775;51.958;7.976;2022-10-16T05:39:11;4.97;;;1.77;;
1563;SDS011;775;51.958;7.976;2022-10-16T05:41:38;4.70;;;1.83;;
1563;SDS011;775;51.958;7.976;2022-10-16T05:44:05;5.20;;;1.90;;
1563;SDS011;775;51.958;7.976;2022-10-16T05:46:34;8.60;;;1.90;;
1563;SDS011;775;51.958;7.976;2022-10-16T05:49:01;4.87;;;1.50;;
1563;SDS011;775;51.958;7.976;2022-10-16T05:51:28;4.67;;;1.50;;
1563;SDS011;775;51.958;7.976;2022-10-16T05:53:55;4.60;;;1.50;;
1563;SDS011;775;51.958;7.976;2022-10-16T05:56:22;5.00;;;1.40;;
1563;SDS011;775;51.958;7.976;2022-10-16T05:58:49;5.50;;;1.37;;
1563;SDS011;775;51.958;7.976;2022-10-16T06:01:16;4.90;;;1.80;;
1563;SDS011;775;51.958;7.976;2022-10-16T06:03:45;5.10;;;1.67;;
1563;SDS011;775;51.958;7.976;2022-10-16T06:06:16;5.63;;;1.90;;
1563;SDS011;775;51.958;7.976;2022-10-16T06:08:43;4.73;;;1.70;;
1563;SDS011;775;51.958;7.976;2022-10-16T06:11:13;5.27;;;1.60;;
1563;SDS011;775;51.958;7.976;2022-10-16T06:13:41;4.90;;;1.50;;
1563;SDS011;775;51.958;7.976;2022-10-16T06:16:08;4.50;;;1.50;;
1563;SDS011;775;51.958;7.976;2022-10-16T06:18:36;4.77;;;1.60;;
1563;SDS011;775;51.958;7.976;2022-10-16T06:21:08;4.30;;;1.37;;
1563;SDS011;775;51.958;7.976;2022-10-16T06:23:35;4.93;;;1.57;;
1563;SDS011;775;51.958;7.976;2022-10-16T06:26:06;5.07;;;1.80;;
1563;SDS011;775;51.958;7.976;2022-10-16T06:28:33;5.07;;;1.73;;
1563;SDS011;775;51.958;7.976;2022-10-16T06:31:00;5.20;;;1.40;;
1563;SDS011;775;51.958;7.976;2022-10-16T06:33:28;5.60;;;1.40;;
1563;SDS011;775;51.958;7.976;2022-10-16T06:35:59;8.53;;;1.60;;
1563;SDS011;775;51.958;7.976;2022-10-16T06:38:28;4.77;;;1.60;;
1563;SDS011;775;51.958;7.976;2022-10-16T06:40:55;4.67;;;1.70;;
1563;SDS011;775;51.958;7.976;2022-10-16T06:43:23;4.50;;;1.20;;
1563;SDS011;775;51.958;7.976;2022-10-16T06:45:50;5.73;;;1.70;;
1563;SDS011;775;51.958;7.976;2022-10-16T06:48:18;4.60;;;1.43;;
1563;SDS011;775;51.958;7.976;2022-10-16T06:50:54;5.40;;;1.83;;
1563;SDS011;775;51.958;7.976;2022-10-16T06:53:21;7.27;;;2.00;;
1563;SDS011;775;51.958;7.976;2022-10-16T06:55:49;4.37;;;1.23;;
1563;SDS011;775;51.958;7.976;2022-10-16T06:58:16;4.50;;;1.30;;
1563;SDS011;775;51.958;7.976;2022-10-16T07:00:44;5.27;;;1.43;;
1563;SDS011;775;51.958;7.976;2022-10-16T07:03:11;4.77;;;1.63;;
1563;SDS011;775;51.958;7.976;2022-10-16T07:05:38;6.20;;;1.40;;
1563;SDS011;775;51.958;7.976;2022-10-16T07:08:05;6.00;;;1.67;;
1563;SDS011;775;51.958;7.976;2022-10-16T07:10:32;4.80;;;1.63;;
1563;SDS011;775;51.958;7.976;2022-10-16T07:13:00;4.60;;;1.50;;
1563;SDS011;775;51.958;7.976;2022-10-16T07:15:28;5.27;;;1.30;;
1563;SDS011;775;51.958;7.976;2022-10-16T07:17:55;5.33;;;1.40;;
1563;SDS011;775;51.958;7.976;2022-10-16T07:20:22;6.37;;;1.57;;
1563;SDS011;775;51.958;7.976;2022-10-16T07:22:49;5.50;;;1.67;;
1563;SDS011;775;51.958;7.976;2022-10-16T07:25:16;5.00;;;1.80;;
1563;SDS011;775;51.958;7.976;2022-10-16T07:27:43;4.50;;;1.40;;
1563;SDS011;775;51.958;7.976;2022-10-16T07:30:12;4.50;;;1.40;;
1563;SDS011;775;51.958;7.976;2022-10-16T07:32:39;5.10;;;1.50;;
1563;SDS011;775;51.958;7.976;2022-10-16T07:35:06;7.00;;;1.67;;
1563;SDS011;775;51.958;7.976;2022-10-16T07:37:33;4.83;;;1.83;;
1563;SDS011;775;51.958;7.976;2022-10-16T07:40:00;4.73;;;1.63;;
1563;SDS011;775;51.958;7.976;2022-10-16T07:42:28;6.00;;;2.10;;
1563;SDS011;775;51.958;7.976;2022-10-16T07:44:55;5.20;;;1.60;;
1563;SDS011;775;51.958;7.976;2022-10-16T07:47:23;5.10;;;1.77;;
1563;SDS011;775;51.958;7.976;2022-10-16T07:49:50;4.57;;;1.33;;
1563;SDS011;775;51.958;7.976;2022-10-16T07:52:17;5.90;;;1.47;;
1563;SDS011;775;51.958;7.976;2022-10-16T07:54:44;7.80;;;1.47;;
1563;SDS011;775;51.958;7.976;2022-10-16T07:57:11;8.10;;;1.60;;
1563;SDS011;775;51.958;7.976;2022-10-16T07:59:44;6.27;;;1.83;;
1563;SDS011;775;51.958;7.976;2022-10-16T08:02:11;5.47;;;2.03;;
1563;SDS011;775;51.958;7.976;2022-10-16T08:04:39;5.70;;;1.47;;
1563;SDS011;775;51.958;7.976;2022-10-16T08:07:07;5.40;;;1.80;;
1563;SDS011;775;51.958;7.976;2022-10-16T08:09:34;7.03;;;1.43;;
1563;SDS011;775;51.958;7.976;2022-10-16T08:12:01;6.10;;;1.83;;
1563;SDS011;775;51.958;7.976;2022-10-16T08:14:29;4.67;;;1.60;;
1563;SDS011;775;51.958;7.976;2022-10-16T08:16:56;5.60;;;1.60;;
1563;SDS011;775;51.958;7.976;2022-10-16T08:19:23;5.30;;;1.67;;
1563;SDS011;775;51.958;7.976;2022-10-16T08:21:51;5.40;;;1.60;;
1563;SDS011;775;51.958;7.976;2022-10-16T08:24:19;4.53;;;1.47;;
1563;SDS011;775;51.958;7.976;2022-10-16T08:26:46;5.80;;;1.70;;
1563;SDS011;775;51.958;7.976;2022-10-16T08:29:13;4.87;;;1.43;;
1563;SDS011;775;51.958;7.976;2022-10-16T08:31:40;4.90;;;1.60;;
1563;SDS011;775;51.958;7.976;2022-10-16T08:34:07;5.00;;;1.50;;
1563;SDS011;775;51.958;7.976;2022-10-16T08:36:34;4.70;;;1.53;;
1563;SDS011;775;51.958;7.976;2022-10-16T08:39:04;5.20;;;2.10;;
1563;SDS011;775;51.958;7.976;2022-10-16T08:41:40;5.03;;;1.70;;
1563;SDS011;775;51.958;7.976;2022-10-16T08:44:22;4.83;;;1.60;;
1563;SDS011;775;51.958;7.976;2022-10-16T08:46:54;4.70;;;1.63;;
1563;SDS011;775;51.958;7.976;2022-10-16T08:49:22;5.87;;;1.67;;
1563;SDS011;775;51.958;7.976;2022-10-16T08:51:49;4.93;;;1.73;;
1563;SDS011;775;51.958;7.976;2022-10-16T08:54:22;5.77;;;1.80;;
1563;SDS011;775;51.958;7.976;2022-10-16T08:56:53;5.80;;;1.90;;
1563;SDS011;775;51.958;7.976;2022-10-16T08:59:20;5.73;;;1.90;;
1563;SDS011;775;51.958;7.976;2022-10-16T09:01:49;5.50;;;1.87;;
1563;SDS011;775;51.958;7.976;2022-10-16T09:04:28;5.33;;;1.87;;
1563;SDS011;775;51.958;7.976;2022-10-16T09:07:04;5.20;;;2.17;;
1563;SDS011;775;51.958;7.976;2022-10-16T09:09:41;7.60;;;2.27;;
1563;SDS011;775;51.958;7.976;2022-10-16T09:12:12;5.90;;;2.07;;
1563;SDS011;775;51.958;7.976;2022-10-16T09:14:48;4.73;;;1.40;;
1563;SDS011;775;51.958;7.976;2022-10-16T09:17:20;5.53;;;1.90;;
1563;SDS011;775;51.958;7.976;2022-10-16T09:19:50;5.80;;;2.20;;
1563;SDS011;775;51.958;7.976;2022-10-16T09:22:18;5.67;;;1.77;;
1563;SDS011;775;51.958;7.976;2022-10-16T09:24:50;5.80;;;1.80;;
1563;SDS011;775;51.958;7.976;2022-10-16T09:27:17;5.47;;;2.37;;
1563;SDS011;775;51.958;7.976;2022-10-16T09:29:44;5.77;;;1.77;;
1563;SDS011;775;51.958;7.976;2022-10-16T09:32:11;5.90;;;2.00;;
1563;SDS011;775;51.958;7.976;2022-10-16T09:34:40;5.20;;;2.23;;
1563;SDS011;775;51.958;7.976;2022-10-16T09:37:09;5.70;;;1.60;;
1563;SDS011;775;51.958;7.976;2022-10-16T09:39:43;6.37;;;1.87;;
1563;SDS011;775;51.958;7.976;2022-10-16T09:42:13;4.70;;;1.50;;
1563;SDS011;775;51.958;7.976;2022-10-16T09:44:41;5.83;;;1.70;;
1563;SDS011;775;51.958;7.976;2022-10-16T09:47:12;6.20;;;1.70;;
1563;SDS011;775;51.958;7.976;2022-10-16T09:49:49;6.90;;;1.40;;
1563;SDS011;775;51.958;7.976;2022-10-16T09:52:16;8.00;;;1.87;;
1563;SDS011;775;51.958;7.976;2022-10-16T09:54:48;6.47;;;1.40;;
1563;SDS011;775;51.958;7.976;2022-10-16T09:57:17;5.90;;;1.83;;
1563;SDS011;775;51.958;7.976;2022-10-16T09:59:45;5.20;;;1.70;;
1563;SDS011;775;51.958;7.976;2022-10-16T10:02:13;4.60;;;1.53;;
1563;SDS011;775;51.958;7.976;2022-10-16T10:04:47;5.20;;;1.53;;
1563;SDS011;775;51.958;7.976;2022-10-16T10:07:18;7.20;;;1.40;;
1563;SDS011;775;51.958;7.976;2022-10-16T10:09:47;8.70;;;3.33;;
1563;SDS011;775;51.958;7.976;2022-10-16T10:12:18;5.27;;;1.37;;
1563;SDS011;775;51.958;7.976;2022-10-16T10:14:46;5.30;;;1.50;;
1563;SDS011;775;51.958;7.976;2022-10-16T10:17:15;6.30;;;1.37;;
1563;SDS011;775;51.958;7.976;2022-10-16T10:19:44;6.07;;;1.47;;
1563;SDS011;775;51.958;7.976;2022-10-16T10:22:13;5.13;;;1.57;;
1563;SDS011;775;51.958;7.976;2022-10-16T10:24:43;7.13;;;1.50;;
1563;SDS011;775;51.958;7.976;2022-10-16T10:27:12;4.63;;;1.50;;
1563;SDS011;775;51.958;7.976;2022-10-16T10:29:45;7.03;;;2.30;;
1563;SDS011;775;51.958;7.976;2022-10-16T10:32:18;6.30;;;1.50;;
1563;SDS011;775;51.958;7.976;2022-10-16T10:34:55;8.60;;;1.60;;
1563;SDS011;775;51.958;7.976;2022-10-16T10:37:30;5.00;;;2.00;;
1563;SDS011;775;51.958;7.976;2022-10-16T10:40:02;7.00;;;1.50;;
1563;SDS011;775;51.958;7.976;2022-10-16T10:42:32;5.43;;;1.63;;
1563;SDS011;775;51.958;7.976;2022-10-16T10:45:22;5.10;;;1.70;;
1563;SDS011;775;51.958;7.976;2022-10-16T10:47:58;5.63;;;2.00;;
1563;SDS011;775;51.958;7.976;2022-10-16T10:50:26;7.80;;;2.27;;
1563;SDS011;775;51.958;7.976;2022-10-16T10:52:58;6.67;;;2.43;;
1563;SDS011;775;51.958;7.976;2022-10-16T10:55:28;6.27;;;2.60;;
1563;SDS011;775;51.958;7.976;2022-10-16T10:58:02;10.93;;;2.80;;
1563;SDS011;775;51.958;7.976;2022-10-16T11:00:33;5.50;;;2.00;;
1563;SDS011;775;51.958;7.976;2022-10-16T11:03:06;5.03;;;1.60;;
1563;SDS011;775;51.958;7.976;2022-10-16T11:05:40;6.10;;;1.83;;
1563;SDS011;775;51.958;7.976;2022-10-16T11:08:09;6.87;;;1.47;;
1563;SDS011;775;51.958;7.976;2022-10-16T11:10:41;5.43;;;2.03;;
1563;SDS011;775;51.958;7.976;2022-10-16T11:13:10;5.57;;;1.57;;
1563;SDS011;775;51.958;7.976;2022-10-16T11:15:43;6.20;;;1.90;;
1563;SDS011;775;51.958;7.976;2022-10-16T11:18:15;5.50;;;2.00;;
1563;SDS011;775;51.958;7.976;2022-10-16T11:20:45;5.27;;;1.60;;
1563;SDS011;775;51.958;7.976;2022-10-16T11:23:14;5.17;;;1.30;;
1563;SDS011;775;51.958;7.976;2022-10-16T11:25:43;4.90;;;1.60;;
1563;SDS011;775;51.958;7.976;2022-10-16T11:28:11;5.10;;;1.67;;
1563;SDS011;775;51.958;7.976;2022-10-16T11:30:40;6.03;;;2.87;;
1563;SDS011;775;51.958;7.976;2022-10-16T11:33:14;6.40;;;2.17;;
1563;SDS011;775;51.958;7.976;2022-10-16T11:35:47;5.20;;;1.70;;
1563;SDS011;775;51.958;7.976;2022-10-16T11:38:17;6.33;;;1.90;;
1563;SDS011;775;51.958;7.976;2022-10-16T11:40:45;5.57;;;1.77;;
1563;SDS011;775;51.958;7.976;2022-10-16T11:43:15;12.83;;;2.10;;
1563;SDS011;775;51.958;7.976;2022-10-16T11:45:44;5.53;;;1.93;;
1563;SDS011;775;51.958;7.976;2022-10-16T11:48:18;5.90;;;1.50;;
1563;SDS011;775;51.958;7.976;2022-10-16T11:50:48;5.40;;;1.53;;
1563;SDS011;775;51.958;7.976;2022-10-16T11:53:18;7.73;;;2.03;;
1563;SDS011;775;51.958;7.976;2022-10-16T11:55:50;4.53;;;1.40;;
1563;SDS011;775;51.958;7.976;2022-10-16T11:58:20;5.57;;;1.53;;
1563;SDS011;775;51.958;7.976;2022-10-16T12:00:52;5.17;;;1.70;;
1563;SDS011;775;51.958;7.976;2022-10-16T12:03:22;4.70;;;1.40;;
1563;SDS011;775;51.958;7.976;2022-10-16T12:05:58;4.33;;;1.27;;
1563;SDS011;775;51.958;7.976;2022-10-16T12:08:27;6.30;;;1.30;;
1563;SDS011;775;51.958;7.976;2022-10-16T12:11:03;4.73;;;1.27;;
1563;SDS011;775;51.958;7.976;2022-10-16T12:13:33;4.60;;;1.20;;
1563;SDS011;775;51.958;7.976;2022-10-16T12:16:19;4.70;;;1.23;;
1563;SDS011;775;51.958;7.976;2022-10-16T12:18:48;4.97;;;1.30;;
1563;SDS011;775;51.958;7.976;2022-10-16T12:21:16;4.40;;;1.20;;
1563;SDS011;775;51.958;7.976;2022-10-16T12:23:47;4.63;;;1.27;;
1563;SDS011;775;51.958;7.976;2022-10-16T12:26:22;5.03;;;1.20;;
1563;SDS011;775;51.958;7.976;2022-10-16T12:28:50;5.23;;;1.40;;
1563;SDS011;775;51.958;7.976;2022-10-16T12:31:17;5.17;;;1.10;;
1563;SDS011;775;51.958;7.976;2022-10-16T12:33:54;4.50;;;1.17;;
1563;SDS011;775;51.958;7.976;2022-10-16T12:36:26;4.53;;;1.13;;
1563;SDS011;775;51.958;7.976;2022-10-16T12:38:54;5.20;;;1.20;;
1563;SDS011;775;51.958;7.976;2022-10-16T12:41:24;7.30;;;1.60;;
1563;SDS011;775;51.958;7.976;2022-10-16T12:43:52;5.17;;;1.20;;
1563;SDS011;775;51.958;7.976;2022-10-16T12:46:21;5.30;;;1.73;;
1563;SDS011;775;51.958;7.976;2022-10-16T12:48:48;5.07;;;1.40;;
1563;SDS011;775;51.958;7.976;2022-10-16T12:51:23;5.83;;;1.60;;
1563;SDS011;775;51.958;7.976;2022-10-16T12:53:59;6.50;;;2.57;;
1563;SDS011;775;51.958;7.976;2022-10-16T12:56:28;5.03;;;1.37;;
1563;SDS011;775;51.958;7.976;2022-10-16T12:59:02;4.70;;;0.97;;
1563;SDS011;775;51.958;7.976;2022-10-16T13:01:41;4.67;;;1.00;;
1563;SDS011;775;51.958;7.976;2022-10-16T13:04:11;5.23;;;1.00;;
1563;SDS011;775;51.958;7.976;2022-10-16T13:06:45;5.60;;;1.80;;
1563;SDS011;775;51.958;7.976;2022-10-16T13:09:20;5.60;;;1.53;;
1563;SDS011;775;51.958;7.976;2022-10-16T13:11:52;5.67;;;1.20;;
1563;SDS011;775;51.958;7.976;2022-10-16T13:14:27;6.73;;;1.43;;
1563;SDS011;775;51.958;7.976;2022-10-16T13:17:01;5.20;;;1.27;;
1563;SDS011;775;51.958;7.976;2022-10-16T13:19:34;5.57;;;1.07;;
1563;SDS011;775;51.958;7.976;2022-10-16T13:22:05;6.20;;;1.10;;
1563;SDS011;775;51.958;7.976;2022-10-16T13:24:46;5.53;;;1.10;;
1563;SDS011;775;51.958;7.976;2022-10-16T13:27:18;10.90;;;1.53;;
1563;SDS011;775;51.958;7.976;2022-10-16T13:29:51;7.43;;;1.67;;
1563;SDS011;775;51.958;7.976;2022-10-16T13:32:20;5.57;;;1.37;;
1563;SDS011;775;51.958;7.976;2022-10-16T13:34:48;4.70;;;1.30;;
1563;SDS011;775;51.958;7.976;2022-10-16T13:37:18;8.13;;;1.80;;
1563;SDS011;775;51.958;7.976;2022-10-16T13:39:45;5.43;;;1.87;;
1563;SDS011;775;51.958;7.976;2022-10-16T13:42:13;5.70;;;1.40;;
1563;SDS011;775;51.958;7.976;2022-10-16T13:44:42;4.77;;;1.27;;
1563;SDS011;775;51.958;7.976;2022-10-16T13:47:14;5.47;;;1.40;;
1563;SDS011;775;51.958;7.976;2022-10-16T13:49:42;5.20;;;1.30;;
1563;SDS011;775;51.958;7.976;2022-10-16T13:52:15;5.20;;;1.63;;
1563;SDS011;775;51.958;7.976;2022-10-16T13:54:44;5.07;;;1.60;;
1563;SDS011;775;51.958;7.976;2022-10-16T13:57:12;5.67;;;1.27;;
1563;SDS011;775;51.958;7.976;2022-10-16T13:59:40;5.27;;;1.40;;
1563;SDS011;775;51.958;7.976;2022-10-16T14:02:10;5.10;;;1.50;;
1563;SDS011;775;51.958;7.976;2022-10-16T14:04:41;4.93;;;1.43;;
1563;SDS011;775;51.958;7.976;2022-10-16T14:07:12;6.37;;;1.60;;
1563;SDS011;775;51.958;7.976;2022-10-16T14:09:40;5.77;;;1.80;;
1563;SDS011;775;51.958;7.976;2022-10-16T14:12:09;6.17;;;1.47;;
1563;SDS011;775;51.958;7.976;2022-10-16T14:14:40;5.17;;;1.47;;
1563;SDS011;775;51.958;7.976;2022-10-16T14:17:13;7.33;;;2.13;;
1563;SDS011;775;51.958;7.976;2022-10-16T14:19:40;5.50;;;1.57;;
1563;SDS011;775;51.958;7.976;2022-10-16T14:22:18;7.17;;;2.10;;
1563;SDS011;775;51.958;7.976;2022-10-16T14:24:46;6.07;;;1.80;;
1563;SDS011;775;51.958;7.976;2022-10-16T14:27:23;7.47;;;2.20;;
1563;SDS011;775;51.958;7.976;2022-10-16T14:30:01;5.00;;;1.60;;
1563;SDS011;775;51.958;7.976;2022-10-16T14:32:28;6.47;;;1.67;;
1563;SDS011;775;51.958;7.976;2022-10-16T14:34:55;5.97;;;1.77;;
1563;SDS011;775;51.958;7.976;2022-10-16T14:37:23;8.57;;;2.17;;
1563;SDS011;775;51.958;7.976;2022-10-16T14:39:51;8.90;;;1.80;;
1563;SDS011;775;51.958;7.976;2022-10-16T14:42:19;11.60;;;2.73;;
1563;SDS011;775;51.958;7.976;2022-10-16T14:44:50;7.00;;;1.90;;
1563;SDS011;775;51.958;7.976;2022-10-16T14:47:18;6.40;;;1.87;;
1563;SDS011;775;51.958;7.976;2022-10-16T14:49:47;4.77;;;1.80;;
1563;SDS011;775;51.958;7.976;2022-10-16T14:52:14;5.23;;;1.80;;
1563;SDS011;775;51.958;7.976;2022-10-16T14:54:41;5.40;;;1.60;;
1563;SDS011;775;51.958;7.976;2022-10-16T14:57:15;5.60;;;1.63;;
1563;SDS011;775;51.958;7.976;2022-10-16T14:59:42;6.40;;;2.00;;
1563;SDS011;775;51.958;7.976;2022-10-16T15:02:15;6.10;;;1.80;;
1563;SDS011;775;51.958;7.976;2022-10-16T15:04:45;5.10;;;1.80;;
1563;SDS011;775;51.958;7.976;2022-10-16T15:07:12;6.30;;;1.97;;
1563;SDS011;775;51.958;7.976;2022-10-16T15:09:39;5.83;;;1.60;;
1563;SDS011;775;51.958;7.976;2022-10-16T15:12:06;6.27;;;2.30;;
1563;SDS011;775;51.958;7.976;2022-10-16T15:14:33;5.30;;;1.60;;
1563;SDS011;775;51.958;7.976;2022-10-16T15:17:00;5.23;;;1.70;;
1563;SDS011;775;51.958;7.976;2022-10-16T15:19:28;5.43;;;2.10;;
1563;SDS011;775;51.958;7.976;2022-10-16T15:21:56;8.13;;;1.90;;
1563;SDS011;775;51.958;7.976;2022-10-16T15:24:23;4.80;;;1.83;;
1563;SDS011;775;51.958;7.976;2022-10-16T15:26:50;5.73;;;1.40;;
1563;SDS011;775;51.958;7.976;2022-10-16T15:29:17;5.57;;;1.87;;
1563;SDS011;775;51.958;7.976;2022-10-16T15:31:44;7.50;;;1.60;;
1563;SDS011;775;51.958;7.976;2022-10-16T15:34:12;5.77;;;2.03;;
1563;SDS011;775;51.958;7.976;2022-10-16T15:36:41;7.37;;;2.07;;
1563;SDS011;775;51.958;7.976;2022-10-16T15:39:12;7.20;;;1.70;;
1563;SDS011;775;51.958;7.976;2022-10-16T15:41:39;5.30;;;1.80;;